Terminal Aerodrome Forecast
Issued by NWS

Home | Current Version | Previous Version | Text Only | Print | Product List | Glossary On
Versions: 1 2 3 4 5 6 7 8 9 10 11 12 13 14 15 16 17 18
000
FTUS42 KKEY 231721
TAFMTH
TAF
KMTH 231721Z 2318/2418 02010KT P6SM FEW015 FEW030
     FM240000 06012G20KT P6SM VCSH FEW015 SCT025 BKN050=

USA.gov is the U.S. government's official web portal to all federal, state and local government web resources and services.